createdAt,value
2022-12-11T00:00:31.265Z,99870.41
2022-12-11T00:05:33.713Z,99864.22
2022-12-11T00:10:37.999Z,99860.63
2022-12-11T00:15:40.302Z,99860.53
2022-12-11T00:20:42.853Z,99853.44
2022-12-11T00:25:46.546Z,99850.72
2022-12-11T00:30:48.865Z,99861.16
2022-12-11T00:35:51.000Z,99849.72
2022-12-11T00:40:53.314Z,99852.25
2022-12-11T00:45:55.492Z,99859.16
2022-12-11T00:50:57.976Z,99866.09
2022-12-11T00:55:59.986Z,99880.03
2022-12-11T01:01:14.882Z,99879.03
2022-12-11T01:06:19.651Z,99871.03
2022-12-11T01:11:21.859Z,99882.38
2022-12-11T01:16:23.923Z,99877.91
2022-12-11T01:21:26.077Z,99871.69
2022-12-11T01:26:28.169Z,99866.38
2022-12-11T01:31:30.360Z,99854.03
2022-12-11T01:36:32.477Z,99849.59
2022-12-11T01:41:34.659Z,99837.31
2022-12-11T01:46:37.176Z,99831.16
2022-12-11T01:51:53.801Z,99835.44
2022-12-11T01:57:01.608Z,99831.00
2022-12-11T02:07:55.915Z,99828.22
2022-12-11T02:13:05.290Z,99822.94
2022-12-11T02:18:18.500Z,99816.75
2022-12-11T02:23:29.205Z,99813.22
2022-12-11T02:28:42.597Z,99812.25
2022-12-11T02:33:51.405Z,99808.69
2022-12-11T02:38:55.070Z,99800.72
2022-12-11T02:43:58.928Z,99790.22
2022-12-11T02:49:03.154Z,99790.16
2022-12-11T02:54:10.592Z,99781.34
2022-12-11T02:59:26.207Z,99769.91
2022-12-11T03:04:29.434Z,99762.91
2022-12-11T03:09:32.413Z,99765.44
2022-12-11T03:14:34.621Z,99773.22
2022-12-11T03:19:47.900Z,99754.81
2022-12-11T03:25:04.554Z,99757.38
2022-12-11T03:30:14.176Z,99762.56
2022-12-11T03:35:36.219Z,99771.22
2022-12-11T03:40:42.744Z,99778.13
2022-12-11T03:45:47.348Z,99780.69
2022-12-11T03:50:50.658Z,99787.63
2022-12-11T03:55:53.210Z,99785.78
2022-12-11T04:00:55.181Z,99785.72
2022-12-11T04:05:57.249Z,99786.53
2022-12-11T04:11:17.545Z,99778.63
2022-12-11T04:16:19.550Z,99778.53
2022-12-11T04:21:40.124Z,99784.56
2022-12-11T04:26:44.088Z,99774.88
2022-12-11T04:31:46.216Z,99774.81
2022-12-11T04:36:48.242Z,99773.91
2022-12-11T04:41:50.287Z,99770.34
2022-12-11T04:46:52.379Z,99771.16
2022-12-11T04:51:54.489Z,99767.59
2022-12-11T04:56:56.494Z,99760.63
2022-12-11T05:01:58.641Z,99755.31
2022-12-11T05:07:01.371Z,99755.25
2022-12-11T05:12:03.941Z,99753.47
2022-12-11T05:17:05.938Z,99746.41
2022-12-11T05:22:07.931Z,99735.88
2022-12-11T05:27:10.762Z,99729.72
2022-12-11T05:32:12.798Z,99725.31
2022-12-11T05:37:14.849Z,99721.75
2022-12-11T05:42:16.806Z,99730.44
2022-12-11T05:47:20.621Z,99718.19
2022-12-11T05:52:22.600Z,99712.06
2022-12-11T05:57:24.566Z,99703.31
2022-12-11T06:02:26.603Z,99711.13
2022-12-11T06:07:28.622Z,99718.03
2022-12-11T06:12:31.476Z,99717.09
2022-12-11T06:17:34.551Z,99716.19
2022-12-11T06:22:36.701Z,99720.53
2022-12-11T06:27:38.714Z,99716.09
2022-12-11T06:32:41.221Z,99713.44
2022-12-11T06:37:43.174Z,99716.88
2022-12-11T06:42:46.381Z,99705.50
2022-12-11T06:47:48.386Z,99703.78
2022-12-11T06:52:50.572Z,99690.16
2022-12-11T06:57:52.921Z,99681.88
2022-12-11T07:02:56.550Z,99683.94
2022-12-11T07:07:58.769Z,99673.28
2022-12-11T07:13:00.897Z,99678.28
2022-12-11T07:18:03.051Z,99674.31
2022-12-11T07:23:05.163Z,99682.53
2022-12-11T07:28:09.129Z,99684.50
2022-12-11T07:33:12.152Z,99687.97
2022-12-11T07:38:14.344Z,99689.88
2022-12-11T07:43:16.439Z,99677.94
2022-12-11T07:48:18.647Z,99688.38
2022-12-11T07:53:20.675Z,99679.53
2022-12-11T07:58:22.773Z,99682.63
2022-12-11T08:03:25.433Z,99673.97
2022-12-11T08:08:27.517Z,99669.56
2022-12-11T08:13:43.973Z,99669.47
2022-12-11T08:18:50.710Z,99669.59
2022-12-11T08:23:55.036Z,99668.94
2022-12-11T08:28:59.731Z,99663.25
2022-12-11T08:34:06.646Z,99673.09
2022-12-11T08:39:10.764Z,99658.94
2022-12-11T08:44:16.707Z,99662.88
2022-12-11T08:49:32.715Z,99652.16
2022-12-11T08:54:38.683Z,99640.94
2022-12-11T08:59:43.944Z,99650.44
2022-12-11T09:04:48.106Z,99645.00
2022-12-11T09:09:55.514Z,99650.78
2022-12-11T09:14:58.216Z,99654.97
2022-12-11T09:20:00.352Z,99642.94
2022-12-11T09:25:03.212Z,99637.81
2022-12-11T09:30:06.146Z,99621.47
2022-12-11T09:35:09.413Z,99621.47
2022-12-11T09:40:12.893Z,99612.59
2022-12-11T09:45:18.226Z,99607.81
2022-12-11T09:50:31.559Z,99591.72
2022-12-11T09:55:45.079Z,99592.69
2022-12-11T10:01:01.372Z,99591.63
2022-12-11T10:06:24.356Z,99580.13
2022-12-11T10:11:26.328Z,99573.34
2022-12-11T10:16:31.201Z,99562.47
2022-12-11T10:21:42.403Z,99553.44
2022-12-11T10:26:47.248Z,99559.75
2022-12-11T10:32:03.103Z,99554.06
2022-12-11T10:37:37.858Z,99546.16
2022-12-11T10:42:45.526Z,99535.06
2022-12-11T10:47:48.523Z,99532.31
2022-12-11T10:52:55.164Z,99521.88
2022-12-11T10:58:05.981Z,99514.94
2022-12-11T11:03:33.795Z,99504.66
2022-12-11T11:08:44.872Z,99498.13
2022-12-11T11:13:49.062Z,99489.34
2022-12-11T11:18:56.235Z,99485.72
2022-12-11T11:23:58.968Z,99485.50
2022-12-11T11:29:01.475Z,99486.19
2022-12-11T11:34:12.021Z,99472.47
2022-12-11T11:39:34.749Z,99469.16
2022-12-11T11:45:00.811Z,99468.31
2022-12-11T11:50:08.952Z,99457.94
2022-12-11T11:55:42.785Z,99450.03
2022-12-11T12:00:44.904Z,99442.09
2022-12-11T12:05:59.377Z,99444.44
2022-12-11T12:19:45.097Z,99434.53
2022-12-11T12:24:53.738Z,99425.41
2022-12-11T12:30:06.004Z,99424.09
2022-12-11T12:35:38.673Z,99423.72
2022-12-11T12:40:52.639Z,99415.56
2022-12-11T12:46:10.992Z,99406.97
2022-12-11T12:51:17.099Z,99405.72
2022-12-11T12:56:21.179Z,99403.56
2022-12-11T13:01:26.561Z,99412.38
2022-12-11T13:06:38.450Z,99405.28
2022-12-11T13:11:40.864Z,99411.09
2022-12-11T13:16:52.245Z,99413.13
2022-12-11T13:22:21.210Z,99412.56
2022-12-11T13:27:25.465Z,99411.56
2022-12-11T13:32:31.485Z,99413.13
2022-12-11T13:37:36.873Z,99401.47
2022-12-11T13:43:01.785Z,99400.47
2022-12-11T13:48:16.638Z,99406.63
2022-12-11T13:53:20.704Z,99401.16
2022-12-11T13:58:24.083Z,99409.09
2022-12-11T14:03:26.532Z,99412.44
2022-12-11T14:08:35.517Z,99407.03
2022-12-11T14:13:41.256Z,99408.63
2022-12-11T14:18:43.429Z,99403.31
2022-12-11T14:23:52.095Z,99403.25
2022-12-11T14:28:54.467Z,99407.50
2022-12-11T14:34:03.571Z,99391.53
2022-12-11T14:39:36.255Z,99394.13
2022-12-11T14:45:21.662Z,99389.59
2022-12-11T14:50:39.117Z,99379.84
2022-12-11T14:55:49.899Z,99378.81
2022-12-11T15:01:26.747Z,99373.41
2022-12-11T15:06:32.293Z,99369.94
2022-12-11T15:11:34.659Z,99369.06
2022-12-11T15:16:41.387Z,99361.97
2022-12-11T15:21:43.916Z,99365.50
2022-12-11T15:26:48.206Z,99373.50
2022-12-11T15:32:28.297Z,99374.28
2022-12-11T15:37:38.756Z,99368.09
2022-12-11T15:42:42.978Z,99371.72
2022-12-11T15:47:46.861Z,99360.97
2022-12-11T15:52:50.276Z,99356.47
2022-12-11T15:57:56.487Z,99358.06
2022-12-11T16:02:59.343Z,99352.41
2022-12-11T16:08:01.826Z,99346.97
2022-12-11T16:13:04.112Z,99343.28
2022-12-11T16:18:10.710Z,99347.63
2022-12-11T16:23:15.523Z,99347.53
2022-12-11T16:28:22.607Z,99345.72
2022-12-11T16:33:25.388Z,99343.84
2022-12-11T16:38:27.848Z,99340.28
2022-12-11T16:43:30.912Z,99328.66
2022-12-11T16:48:33.758Z,99334.00
2022-12-11T16:53:36.956Z,99328.50
2022-12-11T16:58:40.910Z,99323.03
2022-12-11T17:03:45.314Z,99317.91
2022-12-11T17:08:48.032Z,99321.25
2022-12-11T17:13:59.047Z,99324.72
2022-12-11T17:19:03.465Z,99326.53
2022-12-11T17:24:07.020Z,99326.38
2022-12-11T17:29:14.527Z,99314.97
2022-12-11T17:34:17.140Z,99319.31
2022-12-11T17:39:19.725Z,99316.75
2022-12-11T17:44:22.782Z,99320.09
2022-12-11T17:49:26.862Z,99319.91
2022-12-11T17:54:41.980Z,99322.66
2022-12-11T17:59:55.664Z,99326.25
2022-12-11T18:05:02.323Z,99334.19
2022-12-11T18:10:05.989Z,99335.81
2022-12-11T18:15:09.770Z,99332.16
2022-12-11T18:20:17.601Z,99329.59
2022-12-11T18:25:20.826Z,99334.91
2022-12-11T18:30:25.559Z,99330.41
2022-12-11T18:35:35.480Z,99324.06
2022-12-11T18:40:40.972Z,99327.00
2022-12-11T18:45:49.176Z,99324.28
2022-12-11T18:50:53.436Z,99325.88
2022-12-11T18:56:00.321Z,99328.47
2022-12-11T19:01:27.121Z,99326.59
2022-12-11T19:06:41.033Z,99328.44
2022-12-11T19:11:45.952Z,99328.47
2022-12-11T19:16:52.621Z,99323.91
2022-12-11T19:21:56.837Z,99307.91
2022-12-11T19:27:00.928Z,99319.22
2022-12-11T19:32:05.658Z,99311.25
2022-12-11T19:37:11.444Z,99312.06
2022-12-11T19:42:26.433Z,99313.03
2022-12-11T19:47:32.445Z,99311.03
2022-12-11T19:52:45.794Z,99300.47
2022-12-11T19:57:54.226Z,99300.78
2022-12-11T20:02:59.237Z,99291.81
2022-12-11T20:08:27.676Z,99287.53
2022-12-11T20:13:28.045Z,99280.59
2022-12-11T20:18:31.410Z,99281.63
2022-12-11T20:23:35.266Z,99279.88
2022-12-11T20:34:05.830Z,99259.50
2022-12-11T20:39:16.156Z,99246.34
2022-12-11T20:44:25.680Z,99248.16
2022-12-11T20:49:30.226Z,99236.97
2022-12-11T20:54:33.851Z,99233.31
2022-12-11T20:59:38.748Z,99234.97
2022-12-11T21:04:42.666Z,99243.19
2022-12-11T21:09:45.145Z,99245.81
2022-12-11T21:14:48.527Z,99245.81
2022-12-11T21:20:11.257Z,99247.53
2022-12-11T21:25:14.150Z,99243.16
2022-12-11T21:30:20.473Z,99249.25
2022-12-11T21:35:24.974Z,99240.44
2022-12-11T21:40:34.164Z,99243.19
2022-12-11T21:46:00.957Z,99227.13
2022-12-11T21:51:11.963Z,99234.22
2022-12-11T21:56:24.525Z,99239.47
2022-12-11T22:01:32.570Z,99226.16
2022-12-11T22:06:35.210Z,99233.41
2022-12-11T22:11:37.377Z,99232.56
2022-12-11T22:16:41.400Z,99239.38
2022-12-11T22:21:43.446Z,99238.31
2022-12-11T22:26:45.632Z,99240.78
2022-12-11T22:31:47.819Z,99237.03
2022-12-11T22:36:49.981Z,99235.84
2022-12-11T22:41:52.050Z,99231.03
2022-12-11T22:46:54.022Z,99241.13
2022-12-11T22:51:57.775Z,99239.75
2022-12-11T22:56:59.764Z,99234.84
2022-12-11T23:02:02.082Z,99239.56
2022-12-11T23:07:04.522Z,99238.03
2022-12-11T23:12:07.033Z,99247.06
2022-12-11T23:17:10.403Z,99255.19
2022-12-11T23:22:13.455Z,99256.28
2022-12-11T23:27:15.654Z,99252.00
2022-12-11T23:32:17.606Z,99259.16
2022-12-11T23:37:20.254Z,99256.66
2022-12-11T23:42:22.302Z,99256.78
2022-12-11T23:47:24.415Z,99262.22
2022-12-11T23:52:26.883Z,99264.06
2022-12-11T23:57:28.828Z,99261.50
